Time;durP1;ratioP1;P1;durP2;ratioP2;P2;SDS_P1;SDS_P2;PMS_P1;PMS_P2;Temp;Humidity;BMP_temperature;BMP_pressure;BME280_temperature;BME280_humidity;BME280_pressure;Samples;Min_cycle;Max_cycle;Signal;HPM_P1;HPM_P2
2024/01/19 00:01:33;;;;;;;21.00;9.10;;;;;;;;;;4991708;28;20300;-60
2024/01/19 00:03:59;;;;;;;22.40;9.52;;;;;;;;;;4992815;28;20580;-58
2024/01/19 00:06:24;;;;;;;23.92;10.02;;;;;;;;;;4988816;28;20018;-60
2024/01/19 00:08:49;;;;;;;22.15;8.68;;;;;;;;;;4989669;28;20409;-59
2024/01/19 00:11:15;;;;;;;21.10;9.10;;;;;;;;;;5000751;28;20084;-59
2024/01/19 00:13:41;;;;;;;21.52;8.55;;;;;;;;;;4996472;28;20342;-59
2024/01/19 00:16:06;;;;;;;23.85;9.57;;;;;;;;;;4987781;28;20103;-60
2024/01/19 00:18:31;;;;;;;20.83;8.70;;;;;;;;;;4991432;28;20490;-59
2024/01/19 00:20:56;;;;;;;22.40;8.85;;;;;;;;;;4989043;28;20273;-59
2024/01/19 00:23:21;;;;;;;21.70;8.60;;;;;;;;;;4995171;28;20050;-59
2024/01/19 00:25:47;;;;;;;24.27;8.60;;;;;;;;;;4996182;28;20283;-59
2024/01/19 00:28:12;;;;;;;21.33;8.80;;;;;;;;;;4988890;28;20367;-58
2024/01/19 00:30:37;;;;;;;23.57;9.30;;;;;;;;;;4999259;28;20105;-58
2024/01/19 00:33:02;;;;;;;22.57;8.70;;;;;;;;;;4999494;28;20268;-58
2024/01/19 00:35:28;;;;;;;21.83;8.85;;;;;;;;;;4990678;28;20289;-57
2024/01/19 00:37:53;;;;;;;21.20;8.63;;;;;;;;;;4992986;28;20029;-58
2024/01/19 00:40:18;;;;;;;20.23;8.10;;;;;;;;;;4998439;28;20045;-57
2024/01/19 00:42:43;;;;;;;23.27;7.97;;;;;;;;;;4997386;28;20022;-58
2024/01/19 00:45:12;;;;;;;21.03;8.03;;;;;;;;;;4993686;28;20273;-58
2024/01/19 00:47:37;;;;;;;23.58;8.48;;;;;;;;;;4983613;28;20274;-58
2024/01/19 00:50:04;;;;;;;22.33;8.02;;;;;;;;;;4989311;28;20520;-59
2024/01/19 00:52:29;;;;;;;21.33;8.38;;;;;;;;;;4998952;28;20390;-57
2024/01/19 00:54:54;;;;;;;20.98;7.95;;;;;;;;;;4993458;28;20118;-57
2024/01/19 00:57:19;;;;;;;20.23;7.57;;;;;;;;;;4988391;28;20477;-57
2024/01/19 00:59:45;;;;;;;21.17;7.77;;;;;;;;;;4991677;28;20272;-58
2024/01/19 01:02:10;;;;;;;21.85;8.00;;;;;;;;;;4987025;28;20780;-59
2024/01/19 01:04:35;;;;;;;23.83;8.93;;;;;;;;;;4980630;28;20114;-58
2024/01/19 01:07:01;;;;;;;23.75;8.68;;;;;;;;;;4982476;28;20030;-59
2024/01/19 01:09:27;;;;;;;22.95;8.82;;;;;;;;;;4985912;28;20481;-59
2024/01/19 01:11:52;;;;;;;27.77;9.65;;;;;;;;;;4994264;28;20121;-57
2024/01/19 01:14:17;;;;;;;23.02;8.32;;;;;;;;;;4992270;28;20104;-59
2024/01/19 01:16:42;;;;;;;22.13;8.53;;;;;;;;;;4988870;28;20048;-58
2024/01/19 01:19:08;;;;;;;22.42;7.68;;;;;;;;;;4999328;28;20257;-59
2024/01/19 01:21:33;;;;;;;20.88;7.32;;;;;;;;;;4989170;28;20120;-59
2024/01/19 01:23:59;;;;;;;23.17;7.85;;;;;;;;;;4989687;28;20061;-58
2024/01/19 01:26:24;;;;;;;22.92;7.35;;;;;;;;;;4995900;28;20110;-58
2024/01/19 01:28:49;;;;;;;18.87;7.10;;;;;;;;;;4994285;28;20027;-58
2024/01/19 01:31:14;;;;;;;22.20;7.35;;;;;;;;;;4990853;28;20275;-57
2024/01/19 01:33:39;;;;;;;21.95;6.80;;;;;;;;;;4992710;28;20117;-58
2024/01/19 01:36:05;;;;;;;20.48;6.75;;;;;;;;;;4987087;28;20120;-57
2024/01/19 01:38:30;;;;;;;19.92;6.85;;;;;;;;;;4998564;28;20060;-58
2024/01/19 01:40:55;;;;;;;19.67;7.00;;;;;;;;;;4996449;28;20022;-59
2024/01/19 01:43:22;;;;;;;19.65;6.90;;;;;;;;;;4979367;28;20317;-58
2024/01/19 01:45:48;;;;;;;18.80;6.63;;;;;;;;;;4980504;28;20062;-59
2024/01/19 01:48:13;;;;;;;20.80;7.28;;;;;;;;;;4979868;28;20461;-61
2024/01/19 01:50:39;;;;;;;20.60;7.47;;;;;;;;;;4978370;28;20828;-58
2024/01/19 01:53:04;;;;;;;18.90;6.55;;;;;;;;;;4978803;28;20443;-59
2024/01/19 01:55:29;;;;;;;20.55;6.47;;;;;;;;;;4979001;28;20478;-60
2024/01/19 01:57:55;;;;;;;19.70;6.55;;;;;;;;;;4981908;28;20029;-59
2024/01/19 02:00:20;;;;;;;20.13;6.60;;;;;;;;;;4990950;28;20033;-58
2024/01/19 02:02:46;;;;;;;19.48;6.93;;;;;;;;;;4991119;28;20033;-59
2024/01/19 02:05:11;;;;;;;21.38;7.03;;;;;;;;;;4987106;28;20184;-58
2024/01/19 02:07:36;;;;;;;20.55;6.93;;;;;;;;;;4999470;28;20041;-59
2024/01/19 02:10:02;;;;;;;23.63;6.97;;;;;;;;;;4996076;28;20028;-58
2024/01/19 02:12:28;;;;;;;21.48;6.50;;;;;;;;;;4997700;28;20677;-60
2024/01/19 02:14:55;;;;;;;17.55;6.38;;;;;;;;;;4997029;28;20022;-59
2024/01/19 02:17:20;;;;;;;21.40;6.75;;;;;;;;;;4988901;28;20350;-58
2024/01/19 02:19:45;;;;;;;22.60;6.37;;;;;;;;;;4984576;28;20018;-59
2024/01/19 02:22:10;;;;;;;19.47;6.63;;;;;;;;;;4987663;28;20765;-58
2024/01/19 02:24:36;;;;;;;20.73;6.72;;;;;;;;;;4981172;28;20253;-59
2024/01/19 02:27:01;;;;;;;19.30;7.53;;;;;;;;;;4993086;28;20081;-58
2024/01/19 02:29:27;;;;;;;21.67;6.90;;;;;;;;;;4998480;28;20014;-59
2024/01/19 02:31:52;;;;;;;21.50;6.78;;;;;;;;;;4998122;28;20028;-58
2024/01/19 02:34:17;;;;;;;21.93;7.60;;;;;;;;;;4991149;28;20026;-58
2024/01/19 02:36:42;;;;;;;20.30;7.30;;;;;;;;;;4995035;28;20297;-59
2024/01/19 02:39:08;;;;;;;20.88;7.22;;;;;;;;;;4995562;28;20280;-59
2024/01/19 02:41:33;;;;;;;21.50;6.68;;;;;;;;;;4998863;28;20437;-59
2024/01/19 02:43:59;;;;;;;21.63;6.88;;;;;;;;;;4993214;28;20389;-59
2024/01/19 02:46:24;;;;;;;21.67;6.97;;;;;;;;;;4991924;28;20029;-60
2024/01/19 02:48:49;;;;;;;18.83;6.07;;;;;;;;;;4997402;28;20458;-59
2024/01/19 02:51:14;;;;;;;20.97;6.60;;;;;;;;;;4987400;28;20399;-59
2024/01/19 02:53:39;;;;;;;17.95;6.07;;;;;;;;;;4983709;28;20320;-60
2024/01/19 02:56:05;;;;;;;20.77;6.23;;;;;;;;;;4991017;28;20032;-60
2024/01/19 02:58:30;;;;;;;18.48;6.10;;;;;;;;;;4987932;28;20328;-60
2024/01/19 03:00:55;;;;;;;19.30;6.63;;;;;;;;;;4996208;28;20030;-61
2024/01/19 03:03:21;;;;;;;19.85;6.50;;;;;;;;;;4996400;28;20026;-61
2024/01/19 03:05:46;;;;;;;19.50;6.57;;;;;;;;;;4990025;28;20394;-61
2024/01/19 03:08:11;;;;;;;18.77;5.90;;;;;;;;;;4991937;28;20030;-61
2024/01/19 03:10:36;;;;;;;18.92;6.70;;;;;;;;;;4998147;28;20261;-61
2024/01/19 03:13:02;;;;;;;23.55;6.85;;;;;;;;;;5002709;28;20110;-60
2024/01/19 03:15:27;;;;;;;20.92;6.22;;;;;;;;;;4995985;28;20102;-60
2024/01/19 03:17:52;;;;;;;19.67;5.50;;;;;;;;;;4997087;28;20028;-61
2024/01/19 03:20:17;;;;;;;20.45;6.63;;;;;;;;;;4991531;28;20629;-59
2024/01/19 03:22:42;;;;;;;19.83;6.45;;;;;;;;;;4994936;28;20121;-59
2024/01/19 03:25:08;;;;;;;18.95;5.93;;;;;;;;;;4997735;28;20029;-59
2024/01/19 03:27:33;;;;;;;17.23;6.22;;;;;;;;;;4991454;28;20026;-59
2024/01/19 03:29:58;;;;;;;21.88;6.10;;;;;;;;;;4997217;28;20159;-59
2024/01/19 03:32:23;;;;;;;20.20;6.13;;;;;;;;;;4992946;28;20060;-60
2024/01/19 03:34:49;;;;;;;20.45;6.60;;;;;;;;;;4992699;28;20049;-59
2024/01/19 03:37:14;;;;;;;20.40;6.22;;;;;;;;;;4997873;28;20080;-60
2024/01/19 03:39:39;;;;;;;22.60;8.65;;;;;;;;;;4995810;28;20081;-61
2024/01/19 03:42:04;;;;;;;21.00;6.60;;;;;;;;;;4999554;28;20091;-59
2024/01/19 03:44:30;;;;;;;20.23;6.72;;;;;;;;;;4993380;28;20261;-58
2024/01/19 03:46:55;;;;;;;20.20;6.55;;;;;;;;;;4997498;28;20033;-59
2024/01/19 03:49:20;;;;;;;20.25;6.07;;;;;;;;;;4992870;28;20493;-59
2024/01/19 03:52:01;;;;;;;20.83;6.90;;;;;;;;;;4985190;28;20077;-59
2024/01/19 03:54:27;;;;;;;21.05;6.80;;;;;;;;;;4984849;28;20278;-60
2024/01/19 03:56:52;;;;;;;21.80;7.03;;;;;;;;;;4992783;28;20028;-60
2024/01/19 03:59:17;;;;;;;21.45;7.22;;;;;;;;;;4994174;28;20057;-59
2024/01/19 04:01:42;;;;;;;20.13;7.30;;;;;;;;;;4992117;28;20502;-60
2024/01/19 04:04:08;;;;;;;23.67;7.53;;;;;;;;;;4993486;28;20017;-59
2024/01/19 04:06:33;;;;;;;20.95;7.72;;;;;;;;;;4991711;28;20025;-60
2024/01/19 04:08:58;;;;;;;21.20;7.63;;;;;;;;;;4994174;28;20024;-60
2024/01/19 04:11:23;;;;;;;20.27;7.57;;;;;;;;;;4989694;28;20269;-60
2024/01/19 04:13:48;;;;;;;21.60;8.07;;;;;;;;;;4995609;28;20283;-59
2024/01/19 04:16:13;;;;;;;21.53;7.63;;;;;;;;;;4984243;28;20026;-59
2024/01/19 04:18:39;;;;;;;20.83;8.10;;;;;;;;;;4991378;28;20480;-59
2024/01/19 04:21:04;;;;;;;21.37;9.00;;;;;;;;;;4987695;28;20265;-59
2024/01/19 04:23:29;;;;;;;23.50;8.65;;;;;;;;;;4983170;28;20323;-58
2024/01/19 04:25:54;;;;;;;21.63;9.20;;;;;;;;;;4994006;28;20030;-59
2024/01/19 04:28:19;;;;;;;23.13;8.50;;;;;;;;;;4982078;28;20288;-62
2024/01/19 04:30:44;;;;;;;22.67;8.93;;;;;;;;;;4981995;28;20274;-59
2024/01/19 04:33:10;;;;;;;23.98;9.13;;;;;;;;;;4980095;28;20279;-60
2024/01/19 04:35:35;;;;;;;21.88;8.77;;;;;;;;;;4981879;28;20121;-59
2024/01/19 04:38:00;;;;;;;20.63;8.57;;;;;;;;;;4980228;28;20028;-60
2024/01/19 04:40:25;;;;;;;23.13;9.70;;;;;;;;;;4988294;28;20272;-59
2024/01/19 04:42:50;;;;;;;23.67;9.67;;;;;;;;;;4996865;28;20261;-60
2024/01/19 04:45:15;;;;;;;23.67;9.60;;;;;;;;;;4990356;28;20335;-60
2024/01/19 04:47:41;;;;;;;24.67;9.93;;;;;;;;;;4997124;28;20345;-59
2024/01/19 04:50:06;;;;;;;24.47;9.93;;;;;;;;;;4989303;28;20326;-59
2024/01/19 04:52:31;;;;;;;22.48;9.27;;;;;;;;;;4999934;28;20352;-59
2024/01/19 04:54:56;;;;;;;25.27;10.07;;;;;;;;;;4994193;28;20041;-59
2024/01/19 04:57:22;;;;;;;25.85;10.10;;;;;;;;;;4980461;28;20454;-60
2024/01/19 04:59:47;;;;;;;23.97;9.80;;;;;;;;;;4994893;28;20026;-59
2024/01/19 05:02:12;;;;;;;24.23;10.75;;;;;;;;;;4997257;28;20303;-59
2024/01/19 05:04:37;;;;;;;22.48;9.88;;;;;;;;;;4993013;28;20030;-58
2024/01/19 05:07:02;;;;;;;23.10;10.23;;;;;;;;;;4993831;28;20030;-58
2024/01/19 05:09:28;;;;;;;24.42;10.30;;;;;;;;;;4995098;28;20287;-58
2024/01/19 05:11:53;;;;;;;24.48;10.45;;;;;;;;;;4993852;28;20017;-58
2024/01/19 05:14:18;;;;;;;22.50;9.30;;;;;;;;;;4988985;28;20022;-59
2024/01/19 05:16:43;;;;;;;22.45;10.15;;;;;;;;;;4983587;28;20380;-60
2024/01/19 05:19:08;;;;;;;24.92;9.40;;;;;;;;;;4996196;28;20021;-59
2024/01/19 05:21:34;;;;;;;22.27;9.82;;;;;;;;;;4989798;28;20103;-59
2024/01/19 05:23:59;;;;;;;24.02;9.40;;;;;;;;;;4995141;28;20470;-59
2024/01/19 05:26:25;;;;;;;23.57;9.67;;;;;;;;;;4996452;28;20072;-59
2024/01/19 05:28:50;;;;;;;26.05;10.25;;;;;;;;;;4986352;28;20297;-58
2024/01/19 05:31:15;;;;;;;24.33;9.97;;;;;;;;;;4996070;28;20026;-58
2024/01/19 05:33:40;;;;;;;24.67;10.15;;;;;;;;;;4994895;28;20700;-58
2024/01/19 05:36:06;;;;;;;22.83;9.95;;;;;;;;;;4990535;28;20026;-58
2024/01/19 05:38:31;;;;;;;23.85;9.63;;;;;;;;;;4999305;28;20276;-58
2024/01/19 05:40:58;;;;;;;24.27;9.88;;;;;;;;;;4997148;28;20018;-58
2024/01/19 05:43:24;;;;;;;23.85;10.60;;;;;;;;;;4987990;28;20133;-59
2024/01/19 05:45:49;;;;;;;24.75;10.80;;;;;;;;;;4995410;28;20028;-58
2024/01/19 05:48:14;;;;;;;24.40;10.33;;;;;;;;;;4991983;28;20445;-59
2024/01/19 05:50:39;;;;;;;26.37;10.60;;;;;;;;;;4987250;28;20308;-59
2024/01/19 05:53:04;;;;;;;23.63;10.83;;;;;;;;;;4995011;28;20646;-59
2024/01/19 05:55:29;;;;;;;25.65;10.65;;;;;;;;;;4987562;28;20293;-58
2024/01/19 05:57:55;;;;;;;24.57;11.20;;;;;;;;;;4993454;28;20053;-59
2024/01/19 06:00:20;;;;;;;26.65;11.50;;;;;;;;;;4983063;28;20815;-59
2024/01/19 06:02:45;;;;;;;25.97;10.60;;;;;;;;;;4993361;28;20018;-60
2024/01/19 06:05:10;;;;;;;26.13;11.30;;;;;;;;;;4985784;28;20301;-59
2024/01/19 06:07:35;;;;;;;22.97;10.33;;;;;;;;;;5000588;28;20437;-59
2024/01/19 06:10:00;;;;;;;23.75;10.00;;;;;;;;;;5002345;28;20699;-59
2024/01/19 06:12:26;;;;;;;24.80;10.65;;;;;;;;;;4998679;28;20041;-59
2024/01/19 06:14:51;;;;;;;23.70;10.45;;;;;;;;;;4990387;28;20093;-59
2024/01/19 06:17:16;;;;;;;26.00;11.73;;;;;;;;;;4984169;28;20050;-59
2024/01/19 06:19:42;;;;;;;24.07;10.23;;;;;;;;;;4991898;28;20022;-59
2024/01/19 06:22:07;;;;;;;23.85;10.32;;;;;;;;;;4996711;28;20276;-59
2024/01/19 06:24:35;;;;;;;23.30;9.80;;;;;;;;;;4997271;28;20026;-59
2024/01/19 06:27:00;;;;;;;24.13;10.10;;;;;;;;;;4986802;28;20378;-59
2024/01/19 06:29:26;;;;;;;24.50;10.10;;;;;;;;;;4996684;28;20021;-59
2024/01/19 06:31:51;;;;;;;27.30;12.13;;;;;;;;;;4986699;28;20068;-59
2024/01/19 06:34:16;;;;;;;24.60;9.70;;;;;;;;;;4993269;28;20033;-59
2024/01/19 06:36:45;;;;;;;24.48;10.88;;;;;;;;;;4985247;28;20648;-59
2024/01/19 06:39:11;;;;;;;24.63;10.45;;;;;;;;;;4998886;28;20030;-58
2024/01/19 06:41:39;;;;;;;26.10;11.32;;;;;;;;;;4996363;28;20026;-59
2024/01/19 06:44:05;;;;;;;24.27;10.45;;;;;;;;;;4982503;28;20022;-59
2024/01/19 06:46:30;;;;;;;24.45;10.82;;;;;;;;;;4983791;28;20717;-59
2024/01/19 06:48:55;;;;;;;27.47;10.83;;;;;;;;;;4994236;28;20022;-59
2024/01/19 06:51:21;;;;;;;25.20;11.48;;;;;;;;;;4980923;28;20656;-59
2024/01/19 06:53:47;;;;;;;28.92;12.15;;;;;;;;;;4996731;28;20072;-60
2024/01/19 06:56:12;;;;;;;25.23;11.82;;;;;;;;;;4984222;28;20026;-59
2024/01/19 06:58:37;;;;;;;25.95;12.20;;;;;;;;;;4985522;28;20153;-60
2024/01/19 07:01:02;;;;;;;26.48;11.38;;;;;;;;;;4982633;28;20030;-59
2024/01/19 07:03:27;;;;;;;26.30;11.60;;;;;;;;;;4979917;28;20268;-59
2024/01/19 07:05:53;;;;;;;23.47;10.20;;;;;;;;;;4979264;28;20030;-59
2024/01/19 07:08:18;;;;;;;26.23;11.37;;;;;;;;;;4982017;28;20273;-59
2024/01/19 07:10:43;;;;;;;24.63;10.77;;;;;;;;;;4981169;28;20280;-60
2024/01/19 07:13:08;;;;;;;24.27;10.50;;;;;;;;;;4980272;28;21300;-59
2024/01/19 07:15:33;;;;;;;26.02;11.38;;;;;;;;;;4979159;28;20320;-60
2024/01/19 07:17:59;;;;;;;25.15;11.43;;;;;;;;;;4987976;28;20033;-61
2024/01/19 07:20:24;;;;;;;22.07;10.80;;;;;;;;;;4980804;28;20034;-60
2024/01/19 07:22:51;;;;;;;24.38;11.38;;;;;;;;;;4981249;28;20268;-60
2024/01/19 07:25:16;;;;;;;25.08;11.10;;;;;;;;;;4987550;28;20458;-60
2024/01/19 07:27:41;;;;;;;23.67;10.70;;;;;;;;;;4993231;28;20038;-59
2024/01/19 07:30:06;;;;;;;24.88;11.40;;;;;;;;;;4985624;28;20027;-58
2024/01/19 07:32:31;;;;;;;23.58;11.10;;;;;;;;;;4986614;28;20053;-60
2024/01/19 07:34:57;;;;;;;23.48;11.05;;;;;;;;;;4985285;28;20056;-60
2024/01/19 07:37:22;;;;;;;25.87;12.43;;;;;;;;;;4984138;28;20395;-61
2024/01/19 07:39:47;;;;;;;25.03;11.13;;;;;;;;;;4981687;28;20270;-61
2024/01/19 07:42:12;;;;;;;25.48;11.38;;;;;;;;;;4981542;28;20352;-61
2024/01/19 07:44:37;;;;;;;26.60;12.05;;;;;;;;;;4982927;28;20331;-60
2024/01/19 07:47:03;;;;;;;26.23;12.20;;;;;;;;;;4979319;28;20034;-62
2024/01/19 07:49:28;;;;;;;24.10;12.15;;;;;;;;;;4983757;28;20312;-62
2024/01/19 07:51:53;;;;;;;26.08;11.43;;;;;;;;;;4984838;28;20033;-61
2024/01/19 07:54:20;;;;;;;26.15;11.88;;;;;;;;;;4980768;28;20282;-61
2024/01/19 07:56:45;;;;;;;24.67;11.43;;;;;;;;;;4981436;28;20388;-62
2024/01/19 07:59:11;;;;;;;26.63;11.67;;;;;;;;;;4985018;28;20533;-61
2024/01/19 08:01:36;;;;;;;25.55;11.43;;;;;;;;;;4979062;28;20277;-61
2024/01/19 08:04:01;;;;;;;29.27;13.13;;;;;;;;;;4979241;28;20037;-61
2024/01/19 08:06:26;;;;;;;28.23;12.73;;;;;;;;;;4980836;28;20026;-60
2024/01/19 08:08:51;;;;;;;24.53;11.07;;;;;;;;;;4980461;28;20317;-60
2024/01/19 08:11:17;;;;;;;23.67;11.47;;;;;;;;;;4995177;28;20272;-61
2024/01/19 08:13:42;;;;;;;23.73;11.07;;;;;;;;;;4998897;28;20629;-62
2024/01/19 08:16:07;;;;;;;24.58;11.75;;;;;;;;;;4997150;28;20292;-60
2024/01/19 08:18:34;;;;;;;26.65;11.90;;;;;;;;;;4984066;28;20122;-60
2024/01/19 08:21:00;;;;;;;25.15;12.10;;;;;;;;;;4982917;28;20026;-61
2024/01/19 08:23:25;;;;;;;31.17;15.55;;;;;;;;;;4982454;28;20133;-61
2024/01/19 08:25:50;;;;;;;27.08;12.63;;;;;;;;;;4980316;28;20481;-61
2024/01/19 08:28:15;;;;;;;28.53;13.13;;;;;;;;;;4980896;28;20085;-61
2024/01/19 08:30:41;;;;;;;26.25;12.35;;;;;;;;;;4980643;28;20376;-61
2024/01/19 08:33:07;;;;;;;27.10;12.98;;;;;;;;;;4982909;28;20101;-60
2024/01/19 08:35:32;;;;;;;33.22;16.13;;;;;;;;;;4978124;28;20014;-59
2024/01/19 08:37:58;;;;;;;29.97;14.07;;;;;;;;;;4979997;28;20369;-59
2024/01/19 08:40:23;;;;;;;29.60;15.30;;;;;;;;;;4983629;28;21234;-60
2024/01/19 08:42:49;;;;;;;27.05;13.63;;;;;;;;;;4985336;28;20048;-59
2024/01/19 08:45:14;;;;;;;27.85;12.10;;;;;;;;;;4996574;28;20097;-61
2024/01/19 08:47:39;;;;;;;27.02;12.95;;;;;;;;;;4999433;28;20027;-62
2024/01/19 08:50:05;;;;;;;28.00;14.70;;;;;;;;;;4992949;28;20514;-62
2024/01/19 08:52:30;;;;;;;27.73;12.93;;;;;;;;;;5003661;28;20778;-61
2024/01/19 08:54:55;;;;;;;26.55;12.32;;;;;;;;;;5001511;28;20026;-62
2024/01/19 08:57:21;;;;;;;29.70;14.60;;;;;;;;;;5000274;28;20049;-61
2024/01/19 08:59:46;;;;;;;27.07;13.43;;;;;;;;;;4994932;28;20018;-61
2024/01/19 09:02:11;;;;;;;29.00;13.80;;;;;;;;;;5000657;28;20791;-61
2024/01/19 09:04:36;;;;;;;30.60;15.20;;;;;;;;;;4990507;28;20352;-61
2024/01/19 09:07:02;;;;;;;27.23;13.68;;;;;;;;;;5001785;28;20757;-62
2024/01/19 09:09:27;;;;;;;27.52;12.38;;;;;;;;;;5000337;28;20036;-61
2024/01/19 09:11:52;;;;;;;26.40;13.07;;;;;;;;;;4985436;28;20014;-61
2024/01/19 09:14:18;;;;;;;29.42;12.68;;;;;;;;;;4991545;28;20018;-61
2024/01/19 09:16:44;;;;;;;26.45;11.35;;;;;;;;;;4996730;28;20037;-62
2024/01/19 09:19:09;;;;;;;24.42;11.50;;;;;;;;;;4982262;28;20035;-61
2024/01/19 09:21:34;;;;;;;27.63;12.40;;;;;;;;;;4978796;28;20081;-61
2024/01/19 09:23:59;;;;;;;26.83;12.83;;;;;;;;;;4982177;28;20025;-61
2024/01/19 09:26:24;;;;;;;26.43;11.87;;;;;;;;;;4977660;28;20295;-60
2024/01/19 09:28:49;;;;;;;26.38;11.82;;;;;;;;;;4981595;28;20292;-60
2024/01/19 09:31:15;;;;;;;26.53;11.50;;;;;;;;;;4977953;28;20113;-61
2024/01/19 09:33:41;;;;;;;24.45;10.82;;;;;;;;;;4989100;28;20799;-61
2024/01/19 09:36:06;;;;;;;25.45;11.25;;;;;;;;;;4989894;28;20492;-59
2024/01/19 09:38:35;;;;;;;28.25;11.45;;;;;;;;;;5000976;28;20034;-60
2024/01/19 09:41:21;;;;;;;24.02;10.88;;;;;;;;;;4975417;28;20483;-60
2024/01/19 09:43:47;;;;;;;23.27;10.40;;;;;;;;;;4975198;28;20382;-61
2024/01/19 09:46:18;;;;;;;22.52;10.30;;;;;;;;;;4972245;28;20379;-61
2024/01/19 09:48:59;;;;;;;24.90;11.27;;;;;;;;;;4977495;28;20439;-61
2024/01/19 09:51:28;;;;;;;24.23;11.35;;;;;;;;;;4975621;28;20054;-62
2024/01/19 09:53:55;;;;;;;27.88;14.65;;;;;;;;;;4993327;28;20027;-62
2024/01/19 09:56:20;;;;;;;24.98;11.40;;;;;;;;;;4979595;28;20049;-62
2024/01/19 09:58:45;;;;;;;25.23;11.75;;;;;;;;;;4980806;28;20109;-62
2024/01/19 10:01:10;;;;;;;29.13;13.75;;;;;;;;;;4977418;28;20083;-61
2024/01/19 10:03:36;;;;;;;22.52;9.30;;;;;;;;;;4977417;28;20029;-61
2024/01/19 10:06:03;;;;;;;25.67;11.25;;;;;;;;;;4975332;28;20104;-61
2024/01/19 10:08:28;;;;;;;21.48;9.13;;;;;;;;;;4977251;28;20049;-61
2024/01/19 10:10:55;;;;;;;26.17;11.77;;;;;;;;;;4977055;28;20052;-62
2024/01/19 10:13:20;;;;;;;21.95;9.02;;;;;;;;;;4976436;28;20113;-61
2024/01/19 10:15:45;;;;;;;23.20;9.52;;;;;;;;;;4978118;28;20676;-62
2024/01/19 10:18:10;;;;;;;20.83;8.67;;;;;;;;;;4976843;28;20042;-62
2024/01/19 10:20:38;;;;;;;26.25;9.73;;;;;;;;;;4978150;28;20273;-61
2024/01/19 10:23:19;;;;;;;21.50;8.65;;;;;;;;;;4976716;28;20040;-61
2024/01/19 10:25:45;;;;;;;22.08;9.23;;;;;;;;;;4988954;28;20041;-62
2024/01/19 10:28:28;;;;;;;21.25;9.32;;;;;;;;;;4994318;28;20030;-62
2024/01/19 10:30:53;;;;;;;21.63;9.15;;;;;;;;;;4993864;28;20036;-62
2024/01/19 10:33:18;;;;;;;26.70;12.33;;;;;;;;;;4981855;28;20019;-62
2024/01/19 10:35:44;;;;;;;22.85;9.25;;;;;;;;;;4984487;28;20311;-62
2024/01/19 10:38:10;;;;;;;25.98;12.40;;;;;;;;;;4981916;28;20390;-62
2024/01/19 10:40:35;;;;;;;25.48;12.00;;;;;;;;;;4996068;28;20031;-61
2024/01/19 10:43:01;;;;;;;24.30;11.13;;;;;;;;;;5001214;28;20413;-62
2024/01/19 10:45:28;;;;;;;22.48;9.85;;;;;;;;;;4996946;28;20048;-61
2024/01/19 10:47:57;;;;;;;23.48;9.65;;;;;;;;;;4987825;28;20018;-62
2024/01/19 10:50:26;;;;;;;20.80;8.85;;;;;;;;;;4997355;28;20050;-62
2024/01/19 10:52:52;;;;;;;23.17;8.20;;;;;;;;;;5010388;28;20393;-62
2024/01/19 10:55:21;;;;;;;21.77;9.00;;;;;;;;;;4986217;28;20018;-61
2024/01/19 10:58:06;;;;;;;21.58;8.48;;;;;;;;;;4988930;28;20030;-62
2024/01/19 11:00:32;;;;;;;21.58;9.65;;;;;;;;;;4975012;28;20065;-61
2024/01/19 11:02:59;;;;;;;22.55;8.88;;;;;;;;;;4985949;28;20749;-62
2024/01/19 11:05:25;;;;;;;22.85;9.00;;;;;;;;;;4986363;28;20026;-62
2024/01/19 11:07:51;;;;;;;24.63;8.32;;;;;;;;;;4982110;28;20049;-63
2024/01/19 11:10:17;;;;;;;21.33;9.48;;;;;;;;;;4986255;28;20031;-61
2024/01/19 11:12:45;;;;;;;22.58;8.90;;;;;;;;;;4994910;28;20027;-65
2024/01/19 11:15:13;;;;;;;23.23;8.32;;;;;;;;;;5012286;28;20022;-63
2024/01/19 11:17:39;;;;;;;20.73;8.02;;;;;;;;;;5012475;28;20057;-61
2024/01/19 11:20:04;;;;;;;20.52;8.57;;;;;;;;;;5012369;28;20111;-61
2024/01/19 11:22:30;;;;;;;22.85;9.20;;;;;;;;;;5010338;28;20025;-60
2024/01/19 11:25:01;;;;;;;24.33;8.90;;;;;;;;;;5007902;28;20029;-62
2024/01/19 11:27:34;;;;;;;26.48;12.20;;;;;;;;;;5009560;28;20038;-61
2024/01/19 11:30:09;;;;;;;23.77;10.00;;;;;;;;;;5009550;28;20026;-61
2024/01/19 11:32:34;;;;;;;27.45;10.90;;;;;;;;;;5007642;28;20038;-61
2024/01/19 11:34:59;;;;;;;23.30;8.40;;;;;;;;;;5009434;28;20032;-62
2024/01/19 11:37:46;;;;;;;21.30;7.90;;;;;;;;;;5010570;28;20084;-61
2024/01/19 11:40:34;;;;;;;22.88;7.90;;;;;;;;;;5010984;28;20784;-61
2024/01/19 11:42:59;;;;;;;23.67;7.93;;;;;;;;;;4996856;28;20168;-61
2024/01/19 11:45:27;;;;;;;20.80;7.70;;;;;;;;;;5010789;28;20053;-61
2024/01/19 11:47:52;;;;;;;22.42;9.18;;;;;;;;;;5011128;28;20319;-61
2024/01/19 11:50:38;;;;;;;22.73;8.70;;;;;;;;;;5009410;28;20053;-61
2024/01/19 11:53:04;;;;;;;22.35;7.88;;;;;;;;;;5010941;28;20029;-61
2024/01/19 11:55:29;;;;;;;21.45;8.27;;;;;;;;;;5010738;28;20080;-61
2024/01/19 11:57:55;;;;;;;21.67;8.43;;;;;;;;;;5010952;28;20493;-61
2024/01/19 12:00:20;;;;;;;22.60;7.90;;;;;;;;;;5010978;28;20018;-61
2024/01/19 12:02:46;;;;;;;21.80;8.50;;;;;;;;;;5010514;28;20026;-60
2024/01/19 12:05:11;;;;;;;22.85;8.23;;;;;;;;;;5010852;28;20121;-62
2024/01/19 12:07:36;;;;;;;23.02;8.43;;;;;;;;;;5010552;28;20029;-61
2024/01/19 12:10:09;;;;;;;22.85;8.68;;;;;;;;;;5010712;28;20080;-61
2024/01/19 12:12:35;;;;;;;23.15;8.82;;;;;;;;;;5010672;28;20026;-61
2024/01/19 12:15:00;;;;;;;21.30;8.05;;;;;;;;;;5010814;28;20454;-61
2024/01/19 12:17:25;;;;;;;22.38;8.93;;;;;;;;;;5010610;28;20424;-61
2024/01/19 12:19:54;;;;;;;22.13;8.77;;;;;;;;;;5010636;28;20030;-62
2024/01/19 12:22:19;;;;;;;21.90;8.60;;;;;;;;;;5010522;28;20022;-61
2024/01/19 12:24:45;;;;;;;21.73;8.45;;;;;;;;;;5008661;28;20052;-61
2024/01/19 12:27:10;;;;;;;21.80;8.27;;;;;;;;;;5010391;28;20516;-62
2024/01/19 12:29:39;;;;;;;20.23;8.80;;;;;;;;;;5010520;28;20277;-62
2024/01/19 12:32:11;;;;;;;21.90;8.50;;;;;;;;;;5010401;28;20276;-62
2024/01/19 12:34:37;;;;;;;26.60;8.80;;;;;;;;;;5010416;28;20378;-62
2024/01/19 12:37:02;;;;;;;24.27;8.50;;;;;;;;;;5010044;28;20034;-62
2024/01/19 12:39:27;;;;;;;22.17;8.10;;;;;;;;;;5010002;28;20334;-62
2024/01/19 12:42:04;;;;;;;21.17;8.47;;;;;;;;;;5010416;28;20018;-62
2024/01/19 12:44:30;;;;;;;22.83;8.90;;;;;;;;;;5010674;28;20275;-63
2024/01/19 12:46:58;;;;;;;25.08;9.43;;;;;;;;;;5010083;28;20026;-61
2024/01/19 12:49:23;;;;;;;24.88;8.75;;;;;;;;;;5009883;28;20018;-61
2024/01/19 12:51:49;;;;;;;24.75;10.15;;;;;;;;;;5009978;28;20032;-61
2024/01/19 12:54:15;;;;;;;28.60;11.25;;;;;;;;;;5009976;28;20022;-61
2024/01/19 12:56:40;;;;;;;30.38;11.85;;;;;;;;;;5009835;28;20057;-62
2024/01/19 12:59:09;;;;;;;23.33;8.40;;;;;;;;;;5009963;28;20355;-61
2024/01/19 13:01:35;;;;;;;22.80;8.38;;;;;;;;;;5009943;28;20108;-61
2024/01/19 13:04:01;;;;;;;22.48;8.55;;;;;;;;;;5008424;28;20025;-61
2024/01/19 13:06:26;;;;;;;21.48;9.00;;;;;;;;;;5009430;28;20054;-62
2024/01/19 13:08:52;;;;;;;22.48;8.10;;;;;;;;;;5009706;28;20080;-62
2024/01/19 13:11:20;;;;;;;22.35;8.70;;;;;;;;;;5009792;28;20377;-61
2024/01/19 13:13:45;;;;;;;20.85;7.85;;;;;;;;;;5007635;28;20022;-62
2024/01/19 13:16:13;;;;;;;21.33;8.07;;;;;;;;;;5009429;28;20033;-62
2024/01/19 13:18:39;;;;;;;21.88;7.82;;;;;;;;;;5009518;28;20589;-62
2024/01/19 13:21:14;;;;;;;20.20;7.65;;;;;;;;;;5009374;28;20044;-62
2024/01/19 13:23:40;;;;;;;20.15;7.05;;;;;;;;;;5009363;28;20024;-62
2024/01/19 13:26:13;;;;;;;21.10;8.40;;;;;;;;;;5007935;28;20092;-62
2024/01/19 13:28:38;;;;;;;22.77;7.78;;;;;;;;;;5009233;28;20394;-62
2024/01/19 13:31:04;;;;;;;23.30;8.30;;;;;;;;;;5009319;28;20030;-62
2024/01/19 13:33:29;;;;;;;21.30;8.05;;;;;;;;;;5009416;28;20265;-62
2024/01/19 13:35:54;;;;;;;21.80;8.23;;;;;;;;;;5009042;28;20033;-62
2024/01/19 13:38:19;;;;;;;22.60;7.57;;;;;;;;;;5009093;28;20738;-61
2024/01/19 13:40:45;;;;;;;21.52;7.78;;;;;;;;;;5009091;28;20021;-62
2024/01/19 13:43:10;;;;;;;22.50;8.47;;;;;;;;;;5008926;28;20466;-62
2024/01/19 13:45:35;;;;;;;21.83;7.88;;;;;;;;;;5008898;28;20276;-61
2024/01/19 13:48:00;;;;;;;22.50;8.60;;;;;;;;;;5008952;28;20032;-62
2024/01/19 13:50:25;;;;;;;21.73;7.97;;;;;;;;;;5008544;28;20345;-62
2024/01/19 13:52:50;;;;;;;22.40;7.43;;;;;;;;;;5003692;28;20695;-62
2024/01/19 13:55:16;;;;;;;22.50;8.47;;;;;;;;;;4985599;28;20281;-62
2024/01/19 13:57:41;;;;;;;22.20;8.33;;;;;;;;;;4998993;28;20742;-62
2024/01/19 14:00:08;;;;;;;21.67;8.25;;;;;;;;;;4980551;28;20288;-62
2024/01/19 14:02:33;;;;;;;24.13;8.20;;;;;;;;;;4985913;28;20564;-60
2024/01/19 14:04:58;;;;;;;21.90;8.35;;;;;;;;;;4982383;28;20113;-61
2024/01/19 14:07:24;;;;;;;21.50;7.77;;;;;;;;;;4978250;28;20025;-62
2024/01/19 14:09:49;;;;;;;20.95;8.25;;;;;;;;;;4980254;28;20763;-61
2024/01/19 14:12:15;;;;;;;22.47;7.73;;;;;;;;;;4987140;28;20478;-61
2024/01/19 14:14:41;;;;;;;22.20;8.10;;;;;;;;;;4980289;28;20356;-61
2024/01/19 14:17:06;;;;;;;23.00;8.77;;;;;;;;;;4979006;28;20092;-61
2024/01/19 14:19:32;;;;;;;22.77;7.85;;;;;;;;;;4980672;28;20022;-61